< < Back
Terminal Aerodrome Forecast


Current Version              Previous Versions:   1  2  3  4  5  6  7  8  9  

Terminal Aerodrome Forecast

686
FTUS42 KFFC 012341
TAFATL
TAF
KATL 012341Z 0200/0306 VRB03KT P6SM SCT250
     FM021500 35004KT P6SM SCT035 SCT250
     FM021800 32006KT P6SM BKN045
     FM030000 34003KT P6SM SCT050=

Latest METAR

100
SAUS70 KWBC 020200
MTRATL
METAR KATL 020152Z 13004KT 10SM BKN250 27/19 A3011 RMK AO2 SLP184
T02720194


USA.gov is the U.S. government's official web portal to all federal, state and local government web resources and services.